sensor_id;sensor_type;location;lat;lon;timestamp;pressure;altitude;pressure_sealevel;temperature;humidity
28079;BME280;15388;42.238;24.684;2023-04-28T00:00:01;99653.28;;;10.18;54.21
28079;BME280;15388;42.238;24.684;2023-04-28T00:02:28;99654.78;;;10.11;54.87
28079;BME280;15388;42.238;24.684;2023-04-28T00:04:54;99652.22;;;10.10;54.30
28079;BME280;15388;42.238;24.684;2023-04-28T00:07:19;99650.47;;;9.99;54.30
28079;BME280;15388;42.238;24.684;2023-04-28T00:09:45;99650.63;;;9.97;54.02
28079;BME280;15388;42.238;24.684;2023-04-28T00:12:10;99650.88;;;9.94;54.84
28079;BME280;15388;42.238;24.684;2023-04-28T00:14:36;99644.84;;;9.92;55.33
28079;BME280;15388;42.238;24.684;2023-04-28T00:17:01;99652.25;;;9.88;55.82
28079;BME280;15388;42.238;24.684;2023-04-28T00:19:27;99656.84;;;9.86;55.94
28079;BME280;15388;42.238;24.684;2023-04-28T00:21:53;99650.81;;;9.84;56.30
28079;BME280;15388;42.238;24.684;2023-04-28T00:24:18;99649.19;;;9.72;56.87
28079;BME280;15388;42.238;24.684;2023-04-28T00:26:44;99647.63;;;9.69;57.36
28079;BME280;15388;42.238;24.684;2023-04-28T00:29:09;99652.88;;;9.59;58.51
28079;BME280;15388;42.238;24.684;2023-04-28T00:31:35;99649.59;;;9.34;59.16
28079;BME280;15388;42.238;24.684;2023-04-28T00:34:00;99646.44;;;9.29;59.54
28079;BME280;15388;42.238;24.684;2023-04-28T00:36:25;99648.91;;;9.21;60.29
28079;BME280;15388;42.238;24.684;2023-04-28T00:38:55;99659.44;;;9.11;61.08
28079;BME280;15388;42.238;24.684;2023-04-28T00:41:20;99654.97;;;9.00;62.13
28079;BME280;15388;42.238;24.684;2023-04-28T00:43:46;99648.19;;;9.07;62.81
28079;BME280;15388;42.238;24.684;2023-04-28T00:46:23;99644.13;;;8.91;63.22
28079;BME280;15388;42.238;24.684;2023-04-28T00:48:51;99646.81;;;8.80;63.84
28079;BME280;15388;42.238;24.684;2023-04-28T00:51:17;99648.00;;;8.64;64.27
28079;BME280;15388;42.238;24.684;2023-04-28T00:53:43;99648.75;;;8.55;64.98
28079;BME280;15388;42.238;24.684;2023-04-28T00:56:09;99651.84;;;8.37;65.66
28079;BME280;15388;42.238;24.684;2023-04-28T00:58:36;99656.91;;;8.18;66.34
28079;BME280;15388;42.238;24.684;2023-04-28T01:01:05;99658.59;;;8.19;66.47
28079;BME280;15388;42.238;24.684;2023-04-28T01:03:39;99657.38;;;8.11;66.59
28079;BME280;15388;42.238;24.684;2023-04-28T01:06:07;99650.41;;;8.10;66.36
28079;BME280;15388;42.238;24.684;2023-04-28T01:08:33;99654.28;;;8.29;66.48
28079;BME280;15388;42.238;24.684;2023-04-28T01:10:59;99648.56;;;8.22;66.81
28079;BME280;15388;42.238;24.684;2023-04-28T01:13:26;99651.09;;;8.24;66.53
28079;BME280;15388;42.238;24.684;2023-04-28T01:15:52;99633.06;;;8.18;66.85
28079;BME280;15388;42.238;24.684;2023-04-28T01:18:18;99648.56;;;8.11;66.69
28079;BME280;15388;42.238;24.684;2023-04-28T01:20:44;99648.22;;;8.15;66.48
28079;BME280;15388;42.238;24.684;2023-04-28T01:23:14;99641.72;;;8.20;67.41
28079;BME280;15388;42.238;24.684;2023-04-28T01:25:41;99657.63;;;8.20;67.59
28079;BME280;15388;42.238;24.684;2023-04-28T01:28:07;99652.66;;;8.15;67.49
28079;BME280;15388;42.238;24.684;2023-04-28T01:30:32;99652.31;;;8.08;68.53
28079;BME280;15388;42.238;24.684;2023-04-28T01:32:58;99653.28;;;8.07;69.15
28079;BME280;15388;42.238;24.684;2023-04-28T01:35:23;99647.34;;;8.03;69.84
28079;BME280;15388;42.238;24.684;2023-04-28T01:37:48;99648.44;;;8.01;71.19
28079;BME280;15388;42.238;24.684;2023-04-28T01:40:14;99650.72;;;7.94;71.93
28079;BME280;15388;42.238;24.684;2023-04-28T01:42:40;99646.34;;;7.82;72.34
28079;BME280;15388;42.238;24.684;2023-04-28T01:45:05;99624.69;;;7.52;73.61
28079;BME280;15388;42.238;24.684;2023-04-28T01:47:32;99643.41;;;7.62;74.06
28079;BME280;15388;42.238;24.684;2023-04-28T01:49:58;99652.16;;;7.62;74.24
28079;BME280;15388;42.238;24.684;2023-04-28T01:52:23;99655.66;;;7.63;74.28
28079;BME280;15388;42.238;24.684;2023-04-28T01:54:49;99659.41;;;7.60;74.47
28079;BME280;15388;42.238;24.684;2023-04-28T01:57:16;99655.75;;;7.50;75.62
28079;BME280;15388;42.238;24.684;2023-04-28T01:59:41;99657.31;;;7.52;75.31
28079;BME280;15388;42.238;24.684;2023-04-28T02:02:07;99662.69;;;7.39;76.17
28079;BME280;15388;42.238;24.684;2023-04-28T02:04:32;99653.75;;;7.41;76.40
28079;BME280;15388;42.238;24.684;2023-04-28T02:06:58;99661.22;;;7.35;76.65
28079;BME280;15388;42.238;24.684;2023-04-28T02:09:23;99666.28;;;7.38;76.86
28079;BME280;15388;42.238;24.684;2023-04-28T02:11:49;99668.19;;;7.36;77.12
28079;BME280;15388;42.238;24.684;2023-04-28T02:14:15;99662.50;;;7.30;77.74
28079;BME280;15388;42.238;24.684;2023-04-28T02:16:41;99662.34;;;7.20;78.52
28079;BME280;15388;42.238;24.684;2023-04-28T02:19:06;99672.06;;;7.19;78.48
28079;BME280;15388;42.238;24.684;2023-04-28T02:21:31;99670.50;;;7.17;78.63
28079;BME280;15388;42.238;24.684;2023-04-28T02:23:57;99670.19;;;7.08;78.78
28079;BME280;15388;42.238;24.684;2023-04-28T02:26:23;99675.50;;;7.08;78.70
28079;BME280;15388;42.238;24.684;2023-04-28T02:28:50;99675.75;;;7.05;78.76
28079;BME280;15388;42.238;24.684;2023-04-28T02:31:15;99676.16;;;6.99;79.15
28079;BME280;15388;42.238;24.684;2023-04-28T02:33:41;99678.50;;;6.91;79.93
28079;BME280;15388;42.238;24.684;2023-04-28T02:36:07;99683.34;;;6.97;79.28
28079;BME280;15388;42.238;24.684;2023-04-28T02:38:33;99689.91;;;7.04;78.97
28079;BME280;15388;42.238;24.684;2023-04-28T02:41:02;99702.41;;;7.02;79.91
28079;BME280;15388;42.238;24.684;2023-04-28T02:43:29;99702.63;;;6.99;80.26
28079;BME280;15388;42.238;24.684;2023-04-28T02:45:55;99702.44;;;6.76;81.78
28079;BME280;15388;42.238;24.684;2023-04-28T02:48:21;99702.69;;;6.73;82.24
28079;BME280;15388;42.238;24.684;2023-04-28T02:50:46;99708.47;;;6.78;82.13
28079;BME280;15388;42.238;24.684;2023-04-28T02:53:12;99710.06;;;6.68;82.85
28079;BME280;15388;42.238;24.684;2023-04-28T02:55:37;99708.72;;;6.62;83.30
28079;BME280;15388;42.238;24.684;2023-04-28T02:58:03;99715.19;;;6.45;85.09
28079;BME280;15388;42.238;24.684;2023-04-28T03:00:28;99718.34;;;6.50;85.29
28079;BME280;15388;42.238;24.684;2023-04-28T03:02:54;99712.22;;;6.36;86.11
28079;BME280;15388;42.238;24.684;2023-04-28T03:05:19;99717.28;;;6.40;85.51
28079;BME280;15388;42.238;24.684;2023-04-28T03:07:45;99712.22;;;6.36;85.37
28079;BME280;15388;42.238;24.684;2023-04-28T03:10:10;99717.06;;;6.43;84.49
28079;BME280;15388;42.238;24.684;2023-04-28T03:12:36;99723.31;;;6.42;84.52
28079;BME280;15388;42.238;24.684;2023-04-28T03:15:01;99720.00;;;6.38;84.56
28079;BME280;15388;42.238;24.684;2023-04-28T03:17:27;99724.69;;;6.34;84.70
28079;BME280;15388;42.238;24.684;2023-04-28T03:19:53;99738.22;;;6.30;84.07
28079;BME280;15388;42.238;24.684;2023-04-28T03:22:19;99734.59;;;6.31;83.73
28079;BME280;15388;42.238;24.684;2023-04-28T03:24:44;99726.56;;;6.32;83.87
28079;BME280;15388;42.238;24.684;2023-04-28T03:27:10;99736.53;;;6.29;83.94
28079;BME280;15388;42.238;24.684;2023-04-28T03:29:35;99737.38;;;6.29;83.71
28079;BME280;15388;42.238;24.684;2023-04-28T03:32:01;99743.69;;;6.27;83.55
28079;BME280;15388;42.238;24.684;2023-04-28T03:34:26;99738.84;;;6.20;83.24
28079;BME280;15388;42.238;24.684;2023-04-28T03:36:52;99754.81;;;6.32;82.93
28079;BME280;15388;42.238;24.684;2023-04-28T03:39:17;99749.94;;;6.39;82.93
28079;BME280;15388;42.238;24.684;2023-04-28T03:41:42;99759.81;;;6.36;82.03
28079;BME280;15388;42.238;24.684;2023-04-28T03:44:08;99767.59;;;6.38;81.99
28079;BME280;15388;42.238;24.684;2023-04-28T03:46:33;99763.38;;;6.35;82.10
28079;BME280;15388;42.238;24.684;2023-04-28T03:48:59;99765.91;;;6.37;82.34
28079;BME280;15388;42.238;24.684;2023-04-28T03:51:27;99773.75;;;6.39;82.02
28079;BME280;15388;42.238;24.684;2023-04-28T03:53:53;99771.88;;;6.41;81.83
28079;BME280;15388;42.238;24.684;2023-04-28T03:56:20;99781.16;;;6.46;81.91
28079;BME280;15388;42.238;24.684;2023-04-28T03:58:47;99787.09;;;6.50;81.67
28079;BME280;15388;42.238;24.684;2023-04-28T04:01:13;99785.19;;;6.52;81.16
28079;BME280;15388;42.238;24.684;2023-04-28T04:03:38;99797.25;;;6.56;80.26
28079;BME280;15388;42.238;24.684;2023-04-28T04:06:05;99798.13;;;6.70;80.13
28079;BME280;15388;42.238;24.684;2023-04-28T04:08:31;99810.16;;;6.74;80.33
28079;BME280;15388;42.238;24.684;2023-04-28T04:10:57;99804.88;;;6.74;80.80
28079;BME280;15388;42.238;24.684;2023-04-28T04:13:22;99805.19;;;6.82;81.28
28079;BME280;15388;42.238;24.684;2023-04-28T04:15:48;99805.19;;;6.82;80.80
28079;BME280;15388;42.238;24.684;2023-04-28T04:18:14;99817.16;;;6.75;81.20
28079;BME280;15388;42.238;24.684;2023-04-28T04:20:40;99816.22;;;6.89;81.15
28079;BME280;15388;42.238;24.684;2023-04-28T04:23:05;99823.09;;;6.92;80.99
28079;BME280;15388;42.238;24.684;2023-04-28T04:25:31;99828.38;;;6.92;81.12
28079;BME280;15388;42.238;24.684;2023-04-28T04:27:57;99826.47;;;6.94;80.83
28079;BME280;15388;42.238;24.684;2023-04-28T04:30:23;99827.97;;;6.98;80.51
28079;BME280;15388;42.238;24.684;2023-04-28T04:32:48;99826.91;;;7.00;80.64
28079;BME280;15388;42.238;24.684;2023-04-28T04:35:14;99830.28;;;7.03;80.51
28079;BME280;15388;42.238;24.684;2023-04-28T04:37:39;99828.78;;;7.11;80.46
28079;BME280;15388;42.238;24.684;2023-04-28T04:40:05;99833.44;;;7.21;80.42
28079;BME280;15388;42.238;24.684;2023-04-28T04:42:31;99838.31;;;7.27;79.59
28079;BME280;15388;42.238;24.684;2023-04-28T04:44:57;99835.53;;;7.42;78.75
28079;BME280;15388;42.238;24.684;2023-04-28T04:47:22;99839.75;;;7.44;78.57
28079;BME280;15388;42.238;24.684;2023-04-28T04:49:48;99837.84;;;7.46;78.34
28079;BME280;15388;42.238;24.684;2023-04-28T04:52:14;99809.88;;;7.42;77.31
28079;BME280;15388;42.238;24.684;2023-04-28T04:54:40;99842.56;;;7.67;77.71
28079;BME280;15388;42.238;24.684;2023-04-28T04:57:05;99849.00;;;7.76;76.78
28079;BME280;15388;42.238;24.684;2023-04-28T04:59:31;99851.94;;;7.84;75.36
28079;BME280;15388;42.238;24.684;2023-04-28T05:01:57;99846.63;;;7.84;74.85
28079;BME280;15388;42.238;24.684;2023-04-28T05:04:22;99852.53;;;8.01;75.81
28079;BME280;15388;42.238;24.684;2023-04-28T05:06:47;99853.00;;;8.06;75.22
28079;BME280;15388;42.238;24.684;2023-04-28T05:09:13;99850.88;;;8.11;75.10
28079;BME280;15388;42.238;24.684;2023-04-28T05:11:40;99841.84;;;8.14;74.78
28079;BME280;15388;42.238;24.684;2023-04-28T05:14:05;99856.16;;;8.36;74.45
28079;BME280;15388;42.238;24.684;2023-04-28T05:16:31;99870.31;;;8.48;73.97
28079;BME280;15388;42.238;24.684;2023-04-28T05:18:58;99867.97;;;8.56;72.63
28079;BME280;15388;42.238;24.684;2023-04-28T05:21:23;99879.56;;;8.66;71.37
28079;BME280;15388;42.238;24.684;2023-04-28T05:23:48;99882.03;;;8.81;71.95
28079;BME280;15388;42.238;24.684;2023-04-28T05:26:14;99872.41;;;8.91;72.59
28079;BME280;15388;42.238;24.684;2023-04-28T05:28:40;99874.84;;;9.06;70.44
28079;BME280;15388;42.238;24.684;2023-04-28T05:31:07;99875.31;;;9.11;70.13
28079;BME280;15388;42.238;24.684;2023-04-28T05:33:32;99877.75;;;9.26;70.80
28079;BME280;15388;42.238;24.684;2023-04-28T05:35:58;99882.59;;;9.43;69.73
28079;BME280;15388;42.238;24.684;2023-04-28T05:38:24;99885.50;;;9.52;68.78
28079;BME280;15388;42.238;24.684;2023-04-28T05:40:50;99888.63;;;9.57;66.13
28079;BME280;15388;42.238;24.684;2023-04-28T05:43:16;99881.63;;;9.67;64.82
28079;BME280;15388;42.238;24.684;2023-04-28T05:45:42;99883.41;;;9.78;64.66
28079;BME280;15388;42.238;24.684;2023-04-28T05:48:07;99888.09;;;9.86;62.93
28079;BME280;15388;42.238;24.684;2023-04-28T05:50:32;99893.88;;;10.03;62.81
28079;BME280;15388;42.238;24.684;2023-04-28T05:52:58;99888.06;;;10.09;62.25
28079;BME280;15388;42.238;24.684;2023-04-28T05:55:23;99889.25;;;10.16;63.30
28079;BME280;15388;42.238;24.684;2023-04-28T05:57:49;99900.56;;;10.30;62.79
28079;BME280;15388;42.238;24.684;2023-04-28T06:00:15;99892.78;;;10.38;61.07
28079;BME280;15388;42.238;24.684;2023-04-28T06:02:41;99899.06;;;10.49;59.67
28079;BME280;15388;42.238;24.684;2023-04-28T06:05:07;99899.06;;;10.49;60.88
28079;BME280;15388;42.238;24.684;2023-04-28T06:07:33;99910.28;;;10.64;59.64
28079;BME280;15388;42.238;24.684;2023-04-28T06:09:59;99904.69;;;10.67;59.95
28079;BME280;15388;42.238;24.684;2023-04-28T06:12:24;99901.00;;;10.79;59.59
28079;BME280;15388;42.238;24.684;2023-04-28T06:14:50;99905.88;;;10.95;58.37
28079;BME280;15388;42.238;24.684;2023-04-28T06:17:19;99899.22;;;11.11;59.20
28079;BME280;15388;42.238;24.684;2023-04-28T06:19:44;99893.38;;;11.17;59.76
28079;BME280;15388;42.238;24.684;2023-04-28T06:22:10;99893.78;;;11.44;59.82
28079;BME280;15388;42.238;24.684;2023-04-28T06:24:35;99897.22;;;11.56;55.96
28079;BME280;15388;42.238;24.684;2023-04-28T06:27:01;99901.81;;;11.54;54.54
28079;BME280;15388;42.238;24.684;2023-04-28T06:29:27;99899.94;;;11.13;53.21
28079;BME280;15388;42.238;24.684;2023-04-28T06:31:52;99901.88;;;11.32;54.50
28079;BME280;15388;42.238;24.684;2023-04-28T06:34:23;99901.81;;;11.54;53.85
28079;BME280;15388;42.238;24.684;2023-04-28T06:36:51;99906.19;;;11.55;55.13
28079;BME280;15388;42.238;24.684;2023-04-28T06:39:16;99902.88;;;11.72;51.59
28079;BME280;15388;42.238;24.684;2023-04-28T06:41:42;99912.72;;;11.82;50.95
28079;BME280;15388;42.238;24.684;2023-04-28T06:44:07;99903.16;;;11.69;50.95
28079;BME280;15388;42.238;24.684;2023-04-28T06:46:32;99904.00;;;11.80;52.74
28079;BME280;15388;42.238;24.684;2023-04-28T06:48:58;99905.50;;;12.04;55.36
28079;BME280;15388;42.238;24.684;2023-04-28T06:51:23;99874.28;;;11.94;54.46
28079;BME280;15388;42.238;24.684;2023-04-28T06:53:49;99902.72;;;12.15;54.65
28079;BME280;15388;42.238;24.684;2023-04-28T06:56:17;99907.84;;;12.38;55.67
28079;BME280;15388;42.238;24.684;2023-04-28T06:58:42;99906.41;;;12.54;52.97
28079;BME280;15388;42.238;24.684;2023-04-28T07:01:08;99911.91;;;12.52;52.40
28079;BME280;15388;42.238;24.684;2023-04-28T07:03:33;99910.22;;;12.61;52.26
28079;BME280;15388;42.238;24.684;2023-04-28T07:05:59;99913.13;;;12.78;53.10
28079;BME280;15388;42.238;24.684;2023-04-28T07:08:24;99906.69;;;12.90;51.50
28079;BME280;15388;42.238;24.684;2023-04-28T07:10:50;99910.88;;;13.03;54.13
28079;BME280;15388;42.238;24.684;2023-04-28T07:13:15;99887.25;;;13.08;53.66
28079;BME280;15388;42.238;24.684;2023-04-28T07:15:42;99915.34;;;13.12;51.93
28079;BME280;15388;42.238;24.684;2023-04-28T07:18:07;99915.34;;;13.12;51.08
28079;BME280;15388;42.238;24.684;2023-04-28T07:20:32;99910.88;;;13.12;50.54
28079;BME280;15388;42.238;24.684;2023-04-28T07:22:58;99908.69;;;13.36;53.73
28079;BME280;15388;42.238;24.684;2023-04-28T07:25:23;99912.16;;;13.56;53.25
28079;BME280;15388;42.238;24.684;2023-04-28T07:27:48;99913.97;;;13.56;52.12
28079;BME280;15388;42.238;24.684;2023-04-28T07:30:14;99907.69;;;13.37;52.01
28079;BME280;15388;42.238;24.684;2023-04-28T07:32:40;99909.50;;;13.36;51.42
28079;BME280;15388;42.238;24.684;2023-04-28T07:35:06;99910.47;;;13.45;52.84
28079;BME280;15388;42.238;24.684;2023-04-28T07:37:31;99910.81;;;13.70;55.00
28079;BME280;15388;42.238;24.684;2023-04-28T07:39:57;99911.13;;;13.95;54.45
28079;BME280;15388;42.238;24.684;2023-04-28T07:42:22;99907.56;;;14.23;53.19
28079;BME280;15388;42.238;24.684;2023-04-28T07:44:48;99900.75;;;14.29;51.38
28079;BME280;15388;42.238;24.684;2023-04-28T07:47:13;99907.41;;;14.24;50.89
28079;BME280;15388;42.238;24.684;2023-04-28T07:49:39;99901.22;;;14.42;52.30
28079;BME280;15388;42.238;24.684;2023-04-28T07:52:04;99896.34;;;14.56;52.94
28079;BME280;15388;42.238;24.684;2023-04-28T07:54:29;99891.03;;;14.64;53.94
28079;BME280;15388;42.238;24.684;2023-04-28T07:56:55;99899.59;;;14.68;53.48
28079;BME280;15388;42.238;24.684;2023-04-28T07:59:22;99889.44;;;14.35;53.45
28079;BME280;15388;42.238;24.684;2023-04-28T08:01:47;99894.47;;;14.74;53.71
28079;BME280;15388;42.238;24.684;2023-04-28T08:04:13;99890.97;;;14.92;54.14
28079;BME280;15388;42.238;24.684;2023-04-28T08:06:39;99889.94;;;14.75;50.75
28079;BME280;15388;42.238;24.684;2023-04-28T08:09:04;99886.56;;;14.91;51.67
28079;BME280;15388;42.238;24.684;2023-04-28T08:11:30;99890.00;;;15.01;51.28
28079;BME280;15388;42.238;24.684;2023-04-28T08:13:56;99883.13;;;15.25;49.71
28079;BME280;15388;42.238;24.684;2023-04-28T08:16:25;99891.47;;;15.49;50.31
28079;BME280;15388;42.238;24.684;2023-04-28T08:18:51;99879.13;;;15.73;49.66
28079;BME280;15388;42.238;24.684;2023-04-28T08:21:16;99877.91;;;16.02;47.54
28079;BME280;15388;42.238;24.684;2023-04-28T08:23:42;99883.16;;;16.20;44.59
28079;BME280;15388;42.238;24.684;2023-04-28T08:26:07;99879.97;;;16.33;44.83
28079;BME280;15388;42.238;24.684;2023-04-28T08:28:33;99879.81;;;16.43;43.33
28079;BME280;15388;42.238;24.684;2023-04-28T08:30:58;99881.84;;;16.49;43.39
28079;BME280;15388;42.238;24.684;2023-04-28T08:33:25;99880.66;;;16.52;44.72
28079;BME280;15388;42.238;24.684;2023-04-28T08:35:50;99869.44;;;16.73;45.18
28079;BME280;15388;42.238;24.684;2023-04-28T08:38:17;99868.75;;;16.88;44.66
28079;BME280;15388;42.238;24.684;2023-04-28T08:40:43;99861.34;;;16.90;43.23
28079;BME280;15388;42.238;24.684;2023-04-28T08:43:09;99866.38;;;17.10;42.79
28079;BME280;15388;42.238;24.684;2023-04-28T08:45:42;99865.66;;;17.16;42.44
28079;BME280;15388;42.238;24.684;2023-04-28T08:48:19;99862.97;;;17.24;41.40
28079;BME280;15388;42.238;24.684;2023-04-28T08:50:50;99857.94;;;17.21;41.59
28079;BME280;15388;42.238;24.684;2023-04-28T08:53:21;99858.63;;;17.15;42.95
28079;BME280;15388;42.238;24.684;2023-04-28T08:55:50;99857.59;;;17.16;41.12
28079;BME280;15388;42.238;24.684;2023-04-28T08:58:17;99853.56;;;17.20;42.43
28079;BME280;15388;42.238;24.684;2023-04-28T09:00:43;99851.59;;;17.14;41.10
28079;BME280;15388;42.238;24.684;2023-04-28T09:03:08;99849.50;;;17.33;40.86
28079;BME280;15388;42.238;24.684;2023-04-28T09:05:35;99848.38;;;17.59;42.59
28079;BME280;15388;42.238;24.684;2023-04-28T09:08:02;99846.94;;;17.79;40.36
28079;BME280;15388;42.238;24.684;2023-04-28T09:10:28;99843.13;;;17.65;39.67
28079;BME280;15388;42.238;24.684;2023-04-28T09:12:54;99850.72;;;17.62;37.81
28079;BME280;15388;42.238;24.684;2023-04-28T09:15:36;99856.13;;;16.88;38.14
28079;BME280;15388;42.238;24.684;2023-04-28T09:18:04;99858.31;;;16.85;39.19
28079;BME280;15388;42.238;24.684;2023-04-28T09:20:32;99846.84;;;17.16;41.72
28079;BME280;15388;42.238;24.684;2023-04-28T09:23:17;99846.25;;;16.64;40.07
28079;BME280;15388;42.238;24.684;2023-04-28T09:26:15;99843.81;;;17.19;41.46
28079;BME280;15388;42.238;24.684;2023-04-28T09:28:41;99841.50;;;16.91;38.95
28079;BME280;15388;42.238;24.684;2023-04-28T09:31:21;99840.38;;;16.68;40.27
28079;BME280;15388;42.238;24.684;2023-04-28T09:33:57;99839.38;;;16.28;39.56
28079;BME280;15388;42.238;24.684;2023-04-28T09:36:26;99833.81;;;16.46;39.24
28079;BME280;15388;42.238;24.684;2023-04-28T09:38:56;99838.53;;;16.36;40.42
28079;BME280;15388;42.238;24.684;2023-04-28T09:41:34;99826.72;;;16.87;41.56
28079;BME280;15388;42.238;24.684;2023-04-28T09:44:17;99835.94;;;17.17;39.18
28079;BME280;15388;42.238;24.684;2023-04-28T09:46:44;99837.34;;;17.45;38.57
28079;BME280;15388;42.238;24.684;2023-04-28T09:49:10;99831.53;;;17.65;38.24
28079;BME280;15388;42.238;24.684;2023-04-28T09:51:37;99828.63;;;17.75;39.05
28079;BME280;15388;42.238;24.684;2023-04-28T09:54:03;99819.47;;;18.16;38.90
28079;BME280;15388;42.238;24.684;2023-04-28T09:56:31;99817.75;;;18.23;38.13
28079;BME280;15388;42.238;24.684;2023-04-28T09:58:57;99812.75;;;18.58;37.18
28079;BME280;15388;42.238;24.684;2023-04-28T10:01:30;99815.00;;;19.00;37.39
28079;BME280;15388;42.238;24.684;2023-04-28T10:03:59;99804.34;;;19.37;36.26
28079;BME280;15388;42.238;24.684;2023-04-28T10:06:26;99799.81;;;19.59;35.57
28079;BME280;15388;42.238;24.684;2023-04-28T10:08:54;99792.97;;;19.79;34.88
28079;BME280;15388;42.238;24.684;2023-04-28T10:11:22;99794.97;;;19.92;34.66
28079;BME280;15388;42.238;24.684;2023-04-28T10:13:49;99791.28;;;20.15;34.34
28079;BME280;15388;42.238;24.684;2023-04-28T10:16:15;99789.56;;;20.35;34.61
28079;BME280;15388;42.238;24.684;2023-04-28T10:18:41;99787.47;;;20.59;33.49
28079;BME280;15388;42.238;24.684;2023-04-28T10:21:07;99777.59;;;20.73;33.28
28079;BME280;15388;42.238;24.684;2023-04-28T10:26:20;99774.72;;;21.17;31.85
28079;BME280;15388;42.238;24.684;2023-04-28T10:28:49;99760.69;;;20.93;32.89
28079;BME280;15388;42.238;24.684;2023-04-28T10:31:17;99764.84;;;20.96;33.57
28079;BME280;15388;42.238;24.684;2023-04-28T10:33:44;99762.44;;;21.15;32.26
28079;BME280;15388;42.238;24.684;2023-04-28T10:36:10;99763.72;;;21.19;31.93
28079;BME280;15388;42.238;24.684;2023-04-28T10:39:08;99754.19;;;21.36;31.60
28079;BME280;15388;42.238;24.684;2023-04-28T10:41:35;99766.59;;;21.59;31.27
28079;BME280;15388;42.238;24.684;2023-04-28T10:47:07;99755.91;;;21.51;31.92
28079;BME280;15388;42.238;24.684;2023-04-28T10:57:46;99739.88;;;21.49;31.47
28079;BME280;15388;42.238;24.684;2023-04-28T11:00:32;99742.13;;;21.32;31.20
28079;BME280;15388;42.238;24.684;2023-04-28T11:02:57;99747.59;;;21.46;32.17
28079;BME280;15388;42.238;24.684;2023-04-28T11:05:23;99748.44;;;21.53;30.98
28079;BME280;15388;42.238;24.684;2023-04-28T11:08:29;99735.81;;;21.81;30.43
28079;BME280;15388;42.238;24.684;2023-04-28T11:11:25;99739.31;;;21.61;31.76
28079;BME280;15388;42.238;24.684;2023-04-28T11:13:54;99727.78;;;21.38;31.48
28079;BME280;15388;42.238;24.684;2023-04-28T11:17:00;99731.38;;;21.59;29.63
28079;BME280;15388;42.238;24.684;2023-04-28T11:19:38;99729.56;;;21.18;31.52
28079;BME280;15388;42.238;24.684;2023-04-28T11:22:05;99723.88;;;21.61;32.35
28079;BME280;15388;42.238;24.684;2023-04-28T11:24:36;99728.84;;;21.37;32.36
28079;BME280;15388;42.238;24.684;2023-04-28T11:27:01;99729.28;;;21.61;32.27
28079;BME280;15388;42.238;24.684;2023-04-28T11:29:37;99724.31;;;21.72;32.13
28079;BME280;15388;42.238;24.684;2023-04-28T11:32:07;99720.19;;;21.89;31.52
28079;BME280;15388;42.238;24.684;2023-04-28T11:34:34;99718.94;;;21.92;31.52
28079;BME280;15388;42.238;24.684;2023-04-28T11:37:01;99722.91;;;21.89;30.94
28079;BME280;15388;42.238;24.684;2023-04-28T11:39:28;99714.28;;;21.66;31.82
28079;BME280;15388;42.238;24.684;2023-04-28T11:41:54;99716.03;;;21.94;30.92
28079;BME280;15388;42.238;24.684;2023-04-28T11:44:22;99715.84;;;21.26;31.57
28079;BME280;15388;42.238;24.684;2023-04-28T11:46:50;99709.59;;;21.19;30.24
28079;BME280;15388;42.238;24.684;2023-04-28T11:49:22;99703.88;;;21.62;31.10
28079;BME280;15388;42.238;24.684;2023-04-28T11:52:03;99696.03;;;21.95;31.89
28079;BME280;15388;42.238;24.684;2023-04-28T11:54:30;99701.84;;;22.05;30.39
28079;BME280;15388;42.238;24.684;2023-04-28T11:56:58;99692.03;;;22.38;30.25
28079;BME280;15388;42.238;24.684;2023-04-28T11:59:29;99688.50;;;22.31;31.52
28079;BME280;15388;42.238;24.684;2023-04-28T12:01:57;99699.75;;;22.48;30.62
28079;BME280;15388;42.238;24.684;2023-04-28T12:07:18;99686.78;;;22.70;31.33
28079;BME280;15388;42.238;24.684;2023-04-28T12:09:45;99685.50;;;22.80;30.29
28079;BME280;15388;42.238;24.684;2023-04-28T12:12:26;99693.41;;;22.81;29.64
28079;BME280;15388;42.238;24.684;2023-04-28T12:15:02;99667.91;;;22.96;29.82
28079;BME280;15388;42.238;24.684;2023-04-28T12:17:39;99663.91;;;23.05;29.49
28079;BME280;15388;42.238;24.684;2023-04-28T12:20:10;99670.34;;;23.11;29.78
28079;BME280;15388;42.238;24.684;2023-04-28T12:22:46;99662.31;;;23.29;29.68
28079;BME280;15388;42.238;24.684;2023-04-28T12:25:13;99661.41;;;23.43;29.20
28079;BME280;15388;42.238;24.684;2023-04-28T12:27:40;99655.13;;;23.49;28.19
28079;BME280;15388;42.238;24.684;2023-04-28T12:32:45;99650.91;;;23.53;28.10
28079;BME280;15388;42.238;24.684;2023-04-28T12:35:11;99648.50;;;23.31;29.51
28079;BME280;15388;42.238;24.684;2023-04-28T12:37:36;99649.25;;;23.52;28.93
28079;BME280;15388;42.238;24.684;2023-04-28T12:40:06;99636.91;;;23.17;28.66
28079;BME280;15388;42.238;24.684;2023-04-28T12:42:32;99634.84;;;23.12;29.96
28079;BME280;15388;42.238;24.684;2023-04-28T12:44:58;99637.66;;;23.31;29.45
28079;BME280;15388;42.238;24.684;2023-04-28T12:47:23;99638.47;;;23.38;29.46
28079;BME280;15388;42.238;24.684;2023-04-28T12:49:49;99634.34;;;23.61;28.67
28079;BME280;15388;42.238;24.684;2023-04-28T12:52:18;99629.88;;;23.74;28.82
28079;BME280;15388;42.238;24.684;2023-04-28T12:54:43;99621.81;;;23.86;28.94
28079;BME280;15388;42.238;24.684;2023-04-28T12:57:12;99623.81;;;23.72;28.31
28079;BME280;15388;42.238;24.684;2023-04-28T12:59:38;99616.75;;;23.38;29.20
28079;BME280;15388;42.238;24.684;2023-04-28T13:02:04;99617.16;;;23.35;28.42
28079;BME280;15388;42.238;24.684;2023-04-28T13:04:30;99613.31;;;23.50;29.15
28079;BME280;15388;42.238;24.684;2023-04-28T13:06:59;99602.31;;;23.45;29.42
28079;BME280;15388;42.238;24.684;2023-04-28T13:09:25;99603.81;;;23.40;29.49
28079;BME280;15388;42.238;24.684;2023-04-28T13:11:51;99612.03;;;23.52;28.70
28079;BME280;15388;42.238;24.684;2023-04-28T13:14:21;99601.50;;;23.70;28.72